Time;durP1;ratioP1;P1;durP2;ratioP2;P2;SDS_P1;SDS_P2;PMS_P1;PMS_P2;Temp;Humidity;BMP_temperature;BMP_pressure;BME280_temperature;BME280_humidity;BME280_pressure;Samples;Min_cycle;Max_cycle;Signal;HPM_P1;HPM_P2
2022/03/03 00:02:17;;;;;;;61.70;37.93;;;;;;;1.82;67.05;101823.63;1690580;83;22636;-88
2022/03/03 00:04:44;;;;;;;65.60;40.55;;;;;;;1.83;67.11;101817.66;1684841;85;21636;-88
2022/03/03 00:07:10;;;;;;;65.67;39.13;;;;;;;1.86;67.11;101823.06;1715602;83;21016;-88
2022/03/03 00:09:37;;;;;;;62.25;40.48;;;;;;;1.84;67.13;101816.86;1684932;85;21355;-87
2022/03/03 00:12:04;;;;;;;60.05;37.10;;;;;;;1.82;67.09;101815.84;1714576;83;21042;-88
2022/03/03 00:14:32;;;;;;;66.82;41.50;;;;;;;1.82;67.18;101828.81;1684395;85;22659;-88
2022/03/03 00:16:58;;;;;;;61.23;37.20;;;;;;;1.81;67.24;101829.22;1714165;83;21050;-88
2022/03/03 00:19:25;;;;;;;53.87;34.30;;;;;;;1.82;67.33;101823.25;1713873;83;21548;-87
2022/03/03 00:21:52;;;;;;;50.90;32.98;;;;;;;1.81;67.37;101824.03;1714021;83;21334;-87
2022/03/03 00:24:18;;;;;;;58.87;35.08;;;;;;;1.79;67.34;101822.11;1713950;83;21563;-87
2022/03/03 00:26:45;;;;;;;52.23;35.38;;;;;;;1.80;67.42;101822.60;1714055;83;21763;-87
2022/03/03 00:29:12;;;;;;;56.80;35.28;;;;;;;1.81;67.47;101814.94;1713943;83;21036;-87
2022/03/03 00:31:39;;;;;;;56.13;36.10;;;;;;;1.82;67.51;101810.64;1684080;85;21130;-87
2022/03/03 00:34:06;;;;;;;52.83;34.13;;;;;;;1.83;67.54;101806.87;1689773;83;21039;-87
2022/03/03 00:36:34;;;;;;;45.50;30.52;;;;;;;1.84;67.53;101805.17;1714183;83;21062;-88
2022/03/03 00:39:03;;;;;;;47.53;30.55;;;;;;;1.83;67.56;101800.39;1684109;84;21809;-87
2022/03/03 00:41:29;;;;;;;46.63;32.50;;;;;;;1.83;67.58;101798.19;1723055;83;21089;-88
2022/03/03 00:43:56;;;;;;;51.80;32.60;;;;;;;1.78;67.49;101802.11;1724088;83;21082;-88
2022/03/03 00:46:25;;;;;;;51.48;33.65;;;;;;;1.72;67.53;101798.66;1724016;83;21089;-88
2022/03/03 00:48:52;;;;;;;53.05;33.53;;;;;;;1.69;67.58;101802.30;1684448;85;21346;-89
2022/03/03 00:51:19;;;;;;;51.40;34.73;;;;;;;1.66;67.61;101805.57;1724158;83;21789;-89
2022/03/03 00:53:49;;;;;;;48.55;31.97;;;;;;;1.65;67.77;101799.89;1724318;83;21046;-89
2022/03/03 00:56:17;;;;;;;53.58;33.48;;;;;;;1.69;67.86;101794.14;1670095;83;21069;-89
2022/03/03 00:58:44;;;;;;;49.27;34.03;;;;;;;1.71;67.84;101796.45;1684808;85;21361;-89
2022/03/03 01:01:11;;;;;;;47.30;30.52;;;;;;;1.64;67.84;101783.79;1724576;83;21552;-88
2022/03/03 01:03:37;;;;;;;48.58;32.10;;;;;;;1.72;67.90;101794.36;1724684;83;21742;-89
2022/03/03 01:06:04;;;;;;;54.70;32.53;;;;;;;1.70;67.88;101788.55;1724493;83;21035;-90
2022/03/03 01:08:31;;;;;;;47.10;31.42;;;;;;;1.70;67.90;101789.84;1724752;83;21086;-89
2022/03/03 01:10:57;;;;;;;45.50;31.45;;;;;;;1.67;67.95;101789.59;1724236;82;21054;-89
2022/03/03 01:13:24;;;;;;;40.10;27.60;;;;;;;1.70;68.01;101782.95;1724037;82;21046;-88
2022/03/03 01:15:50;;;;;;;42.90;28.10;;;;;;;1.70;67.96;101786.84;1724071;83;21762;-88
2022/03/03 01:18:17;;;;;;;41.80;28.80;;;;;;;1.65;67.92;101791.17;1724194;83;21106;-88
2022/03/03 01:20:44;;;;;;;45.08;27.52;;;;;;;1.56;68.01;101777.11;1724216;83;21019;-89
2022/03/03 01:23:10;;;;;;;41.65;27.95;;;;;;;1.65;68.09;101793.40;1724156;83;21018;-88
2022/03/03 01:25:37;;;;;;;39.98;27.50;;;;;;;1.61;68.04;101790.02;1724276;83;21230;-87
2022/03/03 01:28:06;;;;;;;46.77;26.35;;;;;;;1.61;68.06;101793.02;1724399;83;21758;-86
2022/03/03 01:30:33;;;;;;;33.60;21.77;;;;;;;1.61;68.15;101788.73;1684571;85;21930;-86
2022/03/03 01:32:59;;;;;;;36.50;25.77;;;;;;;1.61;68.13;101804.30;1724246;83;21034;-86
2022/03/03 01:35:26;;;;;;;40.15;25.62;;;;;;;1.56;68.04;101797.88;1724226;83;21553;-86
2022/03/03 01:37:53;;;;;;;38.25;24.40;;;;;;;1.53;68.06;101784.64;1722044;83;21050;-85
2022/03/03 01:40:22;;;;;;;40.33;25.15;;;;;;;1.52;68.11;101802.28;1714591;83;21817;-86
2022/03/03 01:42:49;;;;;;;38.98;24.75;;;;;;;1.51;68.17;101790.11;1684642;85;21058;-88
2022/03/03 01:45:16;;;;;;;38.30;22.17;;;;;;;1.51;68.18;101791.01;1714674;83;21042;-88
2022/03/03 01:47:42;;;;;;;34.43;22.05;;;;;;;1.48;68.16;101791.16;1714755;83;21531;-88
2022/03/03 01:50:09;;;;;;;35.00;23.57;;;;;;;1.48;68.25;101789.86;1714744;83;21062;-88
2022/03/03 01:52:36;;;;;;;36.70;22.00;;;;;;;1.47;68.26;101795.86;1714797;83;21765;-88
2022/03/03 01:55:03;;;;;;;34.03;22.85;;;;;;;1.47;68.28;101801.05;1714724;83;21012;-88
2022/03/03 01:57:31;;;;;;;33.33;21.55;;;;;;;1.49;68.35;101802.06;1714496;83;21051;-87
2022/03/03 01:59:57;;;;;;;32.88;20.70;;;;;;;1.49;68.36;101798.17;1684066;85;21047;-87
2022/03/03 02:02:27;;;;;;;32.85;21.07;;;;;;;1.44;68.33;101787.81;1713849;83;36364;-87
2022/03/03 02:04:54;;;;;;;34.10;21.62;;;;;;;1.44;68.38;101790.01;1714034;83;21862;-85
2022/03/03 02:07:21;;;;;;;33.98;20.90;;;;;;;1.45;68.39;101789.64;1660648;85;21076;-87
2022/03/03 02:09:48;;;;;;;28.32;18.95;;;;;;;1.48;68.47;101792.45;1714644;83;21071;-88
2022/03/03 02:12:14;;;;;;;32.20;19.27;;;;;;;1.47;68.42;101788.97;1714554;83;21030;-87
2022/03/03 02:14:45;;;;;;;27.93;18.52;;;;;;;1.46;68.35;101786.24;1714747;83;21134;-88
2022/03/03 02:17:12;;;;;;;25.95;16.93;;;;;;;1.43;68.34;101786.02;1684289;84;22536;-88
2022/03/03 02:19:39;;;;;;;29.52;19.45;;;;;;;1.42;68.42;101784.20;1714626;83;21093;-88
2022/03/03 02:22:05;;;;;;;27.00;16.52;;;;;;;1.34;68.43;101769.34;1684441;85;21034;-88
2022/03/03 02:24:32;;;;;;;30.17;17.10;;;;;;;1.31;68.44;101762.59;1714522;83;21152;-88
2022/03/03 02:27:00;;;;;;;27.15;17.02;;;;;;;1.30;68.54;101765.59;1714709;83;21119;-88
2022/03/03 02:29:27;;;;;;;28.32;18.48;;;;;;;1.33;68.58;101767.52;1714662;83;21764;-88
2022/03/03 02:31:54;;;;;;;25.75;16.15;;;;;;;1.36;68.59;101767.36;1684692;85;21099;-87
2022/03/03 02:34:21;;;;;;;27.25;16.55;;;;;;;1.35;68.51;101763.34;1714566;83;21128;-87
2022/03/03 02:36:47;;;;;;;28.20;16.93;;;;;;;1.33;68.56;101764.92;1714124;83;21592;-87
2022/03/03 02:39:14;;;;;;;27.95;17.27;;;;;;;1.33;68.61;101759.73;1718142;83;21038;-88
2022/03/03 02:41:41;;;;;;;25.80;16.82;;;;;;;1.30;68.64;101756.52;1659724;85;21155;-87
2022/03/03 02:44:07;;;;;;;27.80;17.82;;;;;;;1.31;68.70;101756.12;1719805;83;21030;-86
2022/03/03 02:46:34;;;;;;;27.77;16.17;;;;;;;1.29;68.74;101755.98;1718736;83;21008;-87
2022/03/03 02:49:00;;;;;;;27.90;17.40;;;;;;;1.29;68.87;101752.50;1659800;85;21143;-88
2022/03/03 02:51:27;;;;;;;25.37;16.48;;;;;;;1.30;68.86;101747.84;1718775;83;21078;-88
2022/03/03 02:53:54;;;;;;;27.45;15.63;;;;;;;1.31;68.95;101745.37;1712047;82;21855;-89
2022/03/03 02:56:20;;;;;;;30.15;17.70;;;;;;;1.32;68.98;101741.08;1720549;83;21015;-88
2022/03/03 02:58:47;;;;;;;24.02;16.32;;;;;;;1.29;68.97;101752.09;1712895;83;21059;-88
2022/03/03 03:01:13;;;;;;;22.48;13.80;;;;;;;1.28;69.03;101737.34;1720571;83;21023;-88
2022/03/03 03:03:40;;;;;;;25.45;15.38;;;;;;;1.24;68.99;101734.00;1661302;85;21110;-87
2022/03/03 03:06:07;;;;;;;27.25;15.48;;;;;;;1.23;69.17;101736.06;1720471;83;21863;-87
2022/03/03 03:08:33;;;;;;;21.42;13.18;;;;;;;1.20;69.13;101733.22;1660697;85;21068;-88
2022/03/03 03:11:02;;;;;;;22.07;14.05;;;;;;;1.18;69.19;101727.02;1720148;83;21272;-87
2022/03/03 03:13:28;;;;;;;21.60;14.33;;;;;;;1.16;69.35;101725.98;1719851;83;21214;-88
2022/03/03 03:15:55;;;;;;;26.52;15.95;;;;;;;1.20;69.41;101718.95;1712847;83;21043;-87
2022/03/03 03:18:22;;;;;;;26.30;14.00;;;;;;;1.23;69.39;101717.02;1720471;83;21757;-88
2022/03/03 03:20:51;;;;;;;23.65;13.75;;;;;;;1.23;69.45;101710.12;1712431;83;21070;-87
2022/03/03 03:23:20;;;;;;;26.42;13.62;;;;;;;1.24;69.38;101701.58;1720498;82;21678;-87
2022/03/03 03:25:47;;;;;;;22.07;13.35;;;;;;;1.24;69.41;101696.39;1719661;83;21062;-85
2022/03/03 03:28:15;;;;;;;23.22;15.58;;;;;;;1.24;69.47;101691.20;1661249;85;21066;-87
2022/03/03 03:30:45;;;;;;;20.68;13.85;;;;;;;1.25;69.49;101689.11;1712177;83;21771;-87
2022/03/03 03:33:12;;;;;;;28.83;15.83;;;;;;;1.29;69.55;101695.44;1720038;83;21603;-87
2022/03/03 03:35:39;;;;;;;27.00;15.93;;;;;;;1.28;69.47;101702.33;1719840;83;21077;-82
2022/03/03 03:38:06;;;;;;;25.32;16.10;;;;;;;1.24;69.53;101688.98;1660988;83;21047;-84
2022/03/03 03:40:33;;;;;;;28.57;16.27;;;;;;;1.27;69.68;101684.94;1687292;85;21163;-86
2022/03/03 03:43:00;;;;;;;27.40;14.47;;;;;;;1.30;69.72;101686.89;1686866;85;21868;-86
2022/03/03 03:45:26;;;;;;;28.15;15.20;;;;;;;1.35;69.70;101686.45;1722083;83;21167;-84
2022/03/03 03:47:53;;;;;;;23.50;14.68;;;;;;;1.33;69.54;101684.50;1689721;84;21086;-83
2022/03/03 03:50:20;;;;;;;26.07;13.40;;;;;;;1.32;69.62;101682.72;1689186;84;21596;-83
2022/03/03 03:52:46;;;;;;;24.80;14.20;;;;;;;1.33;69.68;101678.02;1722109;83;21428;-83
2022/03/03 03:55:13;;;;;;;26.73;13.58;;;;;;;1.30;69.62;101681.30;1722109;81;21754;-83
2022/03/03 03:57:40;;;;;;;26.40;14.63;;;;;;;1.29;69.59;101678.58;1722055;82;21544;-83
2022/03/03 04:00:10;;;;;;;20.45;13.48;;;;;;;1.26;69.62;101670.55;1721989;81;21042;-83
2022/03/03 04:02:37;;;;;;;24.10;13.88;;;;;;;1.23;69.63;101672.52;1689832;84;21054;-82
2022/03/03 04:05:04;;;;;;;21.20;13.65;;;;;;;1.24;69.74;101672.12;1722078;83;21133;-83
2022/03/03 04:07:30;;;;;;;23.77;14.40;;;;;;;1.20;69.65;101664.90;1722379;82;21924;-84
2022/03/03 04:09:57;;;;;;;22.35;14.45;;;;;;;1.17;69.80;101662.98;1722233;82;21055;-84
2022/03/03 04:12:23;;;;;;;24.55;14.40;;;;;;;1.22;69.90;101665.91;1722401;82;21506;-85
2022/03/03 04:14:50;;;;;;;25.40;13.95;;;;;;;1.25;69.84;101664.47;1722496;81;21062;-84
2022/03/03 04:17:17;;;;;;;27.00;13.85;;;;;;;1.27;69.85;101663.30;1689908;84;21098;-84
2022/03/03 04:19:43;;;;;;;24.80;13.83;;;;;;;1.28;69.86;101663.42;1689890;84;21718;-84
2022/03/03 04:22:10;;;;;;;22.82;14.35;;;;;;;1.29;69.89;101661.72;1723680;82;21114;-84
2022/03/03 04:24:36;;;;;;;21.45;13.35;;;;;;;1.29;69.79;101661.72;1722408;82;21211;-84
2022/03/03 04:27:04;;;;;;;18.77;12.07;;;;;;;1.25;69.67;101661.88;1722403;81;21231;-84
2022/03/03 04:29:31;;;;;;;25.90;14.18;;;;;;;1.22;69.77;101657.77;1722447;83;21069;-84
2022/03/03 04:31:58;;;;;;;24.50;13.88;;;;;;;1.22;69.81;101661.66;1690086;84;22443;-85
2022/03/03 04:34:28;;;;;;;24.65;13.28;;;;;;;1.21;69.85;101669.31;1721512;83;21062;-84
2022/03/03 04:36:55;;;;;;;27.58;13.60;;;;;;;1.21;69.84;101676.69;1722552;81;21077;-84
2022/03/03 04:39:21;;;;;;;26.97;14.05;;;;;;;1.15;69.78;101671.94;1715849;82;21063;-83
2022/03/03 04:41:48;;;;;;;27.25;14.98;;;;;;;1.10;69.87;101665.88;1715644;83;21072;-83
2022/03/03 04:44:15;;;;;;;25.70;13.90;;;;;;;1.06;69.95;101662.14;1676085;85;22565;-84
2022/03/03 04:46:41;;;;;;;27.17;14.38;;;;;;;1.05;70.04;101662.95;1658192;85;21067;-84
2022/03/03 04:49:08;;;;;;;25.37;13.60;;;;;;;1.07;70.17;101661.74;1649328;85;21091;-85
2022/03/03 04:51:39;;;;;;;24.23;14.33;;;;;;;1.10;70.19;101664.59;1620309;87;21103;-82
2022/03/03 04:54:06;;;;;;;28.47;15.32;;;;;;;1.08;70.11;101669.64;1648937;87;21067;-90
2022/03/03 04:56:33;;;;;;;25.20;15.23;;;;;;;1.01;70.03;101679.42;1649117;86;21775;-87
2022/03/03 04:59:00;;;;;;;25.17;14.63;;;;;;;0.94;70.21;101669.88;1620951;88;21092;-86
2022/03/03 05:01:26;;;;;;;23.32;15.32;;;;;;;0.93;70.31;101672.34;1658074;85;21592;-86
2022/03/03 05:03:53;;;;;;;30.50;17.90;;;;;;;0.92;70.42;101667.56;1691573;83;21420;-86
2022/03/03 05:06:19;;;;;;;31.40;17.00;;;;;;;0.89;70.37;101666.41;1691447;84;21254;-85
2022/03/03 05:08:46;;;;;;;27.52;14.60;;;;;;;0.88;70.49;101664.59;1691391;84;21811;-86
2022/03/03 05:11:13;;;;;;;27.15;16.52;;;;;;;0.84;70.52;101674.20;1691288;84;21226;-86
2022/03/03 05:13:39;;;;;;;31.80;17.00;;;;;;;0.83;70.66;101668.53;1691475;84;21063;-85
2022/03/03 05:16:06;;;;;;;30.48;16.48;;;;;;;0.88;70.76;101680.14;1691714;84;21019;-88
2022/03/03 05:18:32;;;;;;;28.73;17.12;;;;;;;0.91;70.83;101670.92;1691711;84;21098;-82
2022/03/03 05:20:59;;;;;;;25.92;15.63;;;;;;;0.92;70.81;101661.45;1691993;84;22625;-83
2022/03/03 05:23:26;;;;;;;25.10;15.72;;;;;;;0.94;70.84;101663.80;1712683;81;21105;-83
2022/03/03 05:25:52;;;;;;;25.50;14.90;;;;;;;0.92;70.79;101671.45;1714992;83;21560;-82
2022/03/03 05:28:19;;;;;;;26.77;16.77;;;;;;;0.85;70.65;101682.11;1715809;83;21075;-82
2022/03/03 05:30:45;;;;;;;24.90;16.40;;;;;;;0.80;70.84;101682.13;1707818;84;21086;-82
2022/03/03 05:33:12;;;;;;;26.95;16.67;;;;;;;0.77;70.92;101685.40;1715584;83;21998;-82
2022/03/03 05:35:40;;;;;;;27.50;16.48;;;;;;;0.70;70.95;101683.09;1715618;83;22234;-82
2022/03/03 05:38:10;;;;;;;27.45;15.35;;;;;;;0.65;71.07;101687.00;1676485;85;21676;-88
2022/03/03 05:40:35;;;;;;;29.52;16.70;;;;;;;0.62;71.21;101689.73;1681683;85;21636;-81
2022/03/03 05:43:02;;;;;;;32.08;18.12;;;;;;;0.67;71.43;101689.72;1723637;83;21081;-86
2022/03/03 05:45:30;;;;;;;27.85;16.82;;;;;;;0.73;71.50;101688.91;1660459;85;21966;-82
2022/03/03 05:47:56;;;;;;;31.00;17.60;;;;;;;0.75;71.58;101685.67;1723169;82;21058;-80
2022/03/03 05:50:23;;;;;;;30.40;17.50;;;;;;;0.77;71.56;101677.63;1723294;83;21101;-87
2022/03/03 05:52:49;;;;;;;31.73;19.12;;;;;;;0.82;71.62;101684.45;1719670;82;21481;-88
2022/03/03 05:55:16;;;;;;;30.08;16.85;;;;;;;0.86;71.58;101692.97;1683974;85;21632;-89
2022/03/03 05:57:45;;;;;;;28.90;16.75;;;;;;;0.87;71.56;101690.02;1684065;85;22466;-88
2022/03/03 06:00:15;;;;;;;24.77;15.90;;;;;;;0.87;71.55;101680.95;1684171;83;21066;-87
2022/03/03 06:02:50;;;;;;;27.85;15.68;;;;;;;0.89;71.63;101685.86;1654328;86;21098;-89
2022/03/03 06:05:19;;;;;;;28.20;16.52;;;;;;;0.94;71.75;101693.61;1660461;85;21161;-86
2022/03/03 06:07:48;;;;;;;22.20;13.72;;;;;;;0.97;71.66;101700.31;1684445;85;21639;-84
2022/03/03 06:10:15;;;;;;;26.17;15.75;;;;;;;0.97;71.69;101705.09;1661315;85;22422;-84
2022/03/03 06:12:54;;;;;;;30.20;16.85;;;;;;;0.92;71.65;101715.52;1684338;85;21094;-84
2022/03/03 06:15:22;;;;;;;32.80;17.00;;;;;;;0.90;71.73;101718.37;1655506;84;21103;-88
2022/03/03 06:17:50;;;;;;;27.17;15.20;;;;;;;0.87;71.78;101718.13;1689827;84;21094;-88
2022/03/03 06:20:18;;;;;;;34.23;17.45;;;;;;;0.89;71.92;101724.33;1689849;84;21165;-88
2022/03/03 06:22:44;;;;;;;28.30;15.35;;;;;;;0.89;71.96;101722.14;1679044;84;21793;-86
2022/03/03 06:25:11;;;;;;;31.80;16.05;;;;;;;0.93;72.06;101721.20;1673422;84;22388;-86
2022/03/03 06:27:38;;;;;;;29.00;15.72;;;;;;;0.97;72.00;101735.30;1677445;84;21158;-87
2022/03/03 06:30:05;;;;;;;25.55;15.83;;;;;;;0.95;72.03;101742.06;1675698;84;21063;-87
2022/03/03 06:32:32;;;;;;;27.58;15.08;;;;;;;0.95;71.95;101734.28;1692041;84;21118;-89
2022/03/03 06:34:59;;;;;;;23.85;13.98;;;;;;;0.97;72.04;101725.83;1691907;84;21760;-88
2022/03/03 06:37:25;;;;;;;28.30;14.15;;;;;;;0.94;72.00;101729.50;1691886;84;21592;-89
2022/03/03 06:39:52;;;;;;;28.65;14.03;;;;;;;1.02;72.17;101718.84;1691139;84;21054;-88
2022/03/03 06:42:19;;;;;;;25.97;16.00;;;;;;;1.14;72.28;101712.00;1689860;84;21066;-89
2022/03/03 06:44:46;;;;;;;30.37;15.10;;;;;;;1.27;72.28;101712.57;1690025;83;21085;-88
2022/03/03 06:47:12;;;;;;;25.95;15.65;;;;;;;1.35;72.18;101714.06;1689822;84;22417;-88
2022/03/03 06:49:39;;;;;;;30.52;15.88;;;;;;;1.44;72.14;101711.28;1689957;84;21090;-88
2022/03/03 06:52:07;;;;;;;26.12;15.70;;;;;;;1.56;72.10;101705.75;1685256;83;21070;-88
2022/03/03 06:54:33;;;;;;;29.60;16.10;;;;;;;1.64;71.97;101708.53;1685215;83;21222;-88
2022/03/03 06:57:00;;;;;;;28.52;16.82;;;;;;;1.68;71.85;101706.67;1674859;84;21599;-88
2022/03/03 06:59:31;;;;;;;31.87;16.73;;;;;;;1.74;71.84;101714.02;1657278;86;22654;-88
2022/03/03 07:01:59;;;;;;;28.20;15.80;;;;;;;1.80;71.73;101714.87;1696047;82;21043;-87
2022/03/03 07:04:28;;;;;;;31.23;17.27;;;;;;;1.86;71.77;101723.12;1657279;86;21045;-88
2022/03/03 07:06:54;;;;;;;37.05;17.87;;;;;;;1.85;71.55;101716.14;1695772;83;21090;-88
2022/03/03 07:09:21;;;;;;;29.55;17.75;;;;;;;1.87;71.59;101711.95;1657459;86;21037;-88
2022/03/03 07:11:48;;;;;;;29.12;16.60;;;;;;;1.90;71.54;101705.30;1695888;84;22090;-88
2022/03/03 07:14:15;;;;;;;28.80;15.60;;;;;;;1.94;71.59;101714.23;1657109;86;21072;-89
2022/03/03 07:16:45;;;;;;;33.65;15.23;;;;;;;1.94;71.47;101723.32;1695944;84;21083;-88
2022/03/03 07:19:41;;;;;;;29.77;16.95;;;;;;;1.88;71.39;101712.08;1657185;86;21201;-88
2022/03/03 07:22:33;;;;;;;31.23;16.52;;;;;;;1.85;71.41;101717.44;1695817;84;21079;-88
2022/03/03 07:25:10;;;;;;;33.20;19.40;;;;;;;1.87;71.50;101727.53;1694707;83;21746;-88
2022/03/03 07:27:45;;;;;;;26.50;17.15;;;;;;;1.86;71.52;101729.23;1657080;86;21163;-88
2022/03/03 07:30:14;;;;;;;31.93;18.15;;;;;;;1.85;71.55;101715.73;1695948;82;21552;-88
2022/03/03 07:32:56;;;;;;;35.65;20.12;;;;;;;1.82;71.60;101713.30;1657239;86;22240;-88
2022/03/03 07:35:28;;;;;;;25.68;16.42;;;;;;;1.82;71.65;101715.89;1699227;83;21087;-88
2022/03/03 07:38:03;;;;;;;35.28;18.12;;;;;;;1.79;71.62;101716.58;1657163;86;21786;-88
2022/03/03 07:40:31;;;;;;;33.45;18.50;;;;;;;1.78;71.67;101714.75;1705645;82;21055;-86
2022/03/03 07:42:58;;;;;;;29.85;15.53;;;;;;;1.82;71.84;101701.24;1714779;83;21572;-87
2022/03/03 07:45:25;;;;;;;32.60;17.17;;;;;;;1.92;71.75;101715.41;1715008;83;21690;-87
2022/03/03 07:47:55;;;;;;;30.77;17.12;;;;;;;1.91;71.61;101725.67;1715066;83;21574;-88
2022/03/03 07:50:22;;;;;;;30.10;16.40;;;;;;;1.92;71.68;101728.80;1701018;83;22695;-87
2022/03/03 07:52:49;;;;;;;26.17;16.35;;;;;;;1.90;71.55;101724.78;1715038;83;21516;-87
2022/03/03 07:55:16;;;;;;;32.98;18.27;;;;;;;1.91;71.67;101721.37;1715207;83;21067;-87
2022/03/03 07:58:02;;;;;;;34.95;17.80;;;;;;;1.93;71.66;101720.20;1715138;83;21172;-87
2022/03/03 08:00:31;;;;;;;32.35;17.92;;;;;;;2.02;71.74;101720.00;1715417;83;21074;-87
2022/03/03 08:03:04;;;;;;;28.38;16.02;;;;;;;2.08;71.64;101710.98;1715299;83;21943;-87
2022/03/03 08:05:31;;;;;;;28.35;15.78;;;;;;;2.14;71.63;101714.03;1701343;83;21583;-88
2022/03/03 08:08:00;;;;;;;27.07;15.75;;;;;;;2.21;71.47;101711.47;1715298;83;21094;-87
2022/03/03 08:10:27;;;;;;;32.93;17.40;;;;;;;2.29;71.58;101712.03;1715414;83;21120;-88
2022/03/03 08:12:57;;;;;;;34.48;17.42;;;;;;;2.42;71.48;101717.38;1715437;83;21082;-88
2022/03/03 08:15:25;;;;;;;27.60;17.48;;;;;;;2.51;71.40;101713.22;1715384;83;21759;-87
2022/03/03 08:17:53;;;;;;;27.67;16.27;;;;;;;2.62;71.28;101712.70;1715269;83;21047;-88
2022/03/03 08:20:20;;;;;;;29.10;16.82;;;;;;;2.74;71.26;101709.70;1715439;83;21055;-88
2022/03/03 08:22:46;;;;;;;34.35;17.50;;;;;;;2.84;71.10;101708.26;1715608;83;21130;-87
2022/03/03 08:25:13;;;;;;;36.23;18.60;;;;;;;2.92;71.00;101714.90;1715627;83;21082;-88
2022/03/03 08:27:40;;;;;;;33.08;18.40;;;;;;;3.04;70.88;101712.66;1715650;83;21751;-88
2022/03/03 08:30:08;;;;;;;29.72;16.70;;;;;;;3.07;70.73;101706.39;1715642;83;21064;-87
2022/03/03 08:32:41;;;;;;;29.72;17.10;;;;;;;3.15;70.70;101706.52;1715542;83;21062;-88
2022/03/03 08:35:19;;;;;;;35.85;19.27;;;;;;;3.19;70.53;101707.64;1715244;83;21373;-87
2022/03/03 08:38:00;;;;;;;33.70;19.65;;;;;;;3.25;70.45;101707.68;1715219;83;21062;-88
2022/03/03 08:40:26;;;;;;;34.75;20.40;;;;;;;3.30;70.33;101706.69;1714005;82;21775;-87
2022/03/03 08:42:56;;;;;;;41.35;19.48;;;;;;;3.31;70.14;101715.91;1714958;83;21051;-87
2022/03/03 08:45:23;;;;;;;32.17;18.02;;;;;;;3.27;70.01;101714.30;1715340;82;21513;-86
2022/03/03 08:48:00;;;;;;;34.55;19.60;;;;;;;3.25;70.07;101719.80;1715589;83;21028;-87
2022/03/03 08:50:31;;;;;;;36.80;19.87;;;;;;;3.21;70.09;101719.98;1715432;83;21604;-87
2022/03/03 08:52:56;;;;;;;33.00;18.17;;;;;;;3.17;70.07;101721.83;1714462;83;21744;-88
2022/03/03 08:55:23;;;;;;;30.48;18.12;;;;;;;3.16;70.13;101729.15;1715349;83;21083;-87
2022/03/03 08:57:52;;;;;;;38.20;20.12;;;;;;;3.15;70.12;101723.83;1701366;83;21051;-87
2022/03/03 09:00:18;;;;;;;38.50;19.75;;;;;;;3.15;70.33;101710.83;1715569;82;21305;-86
2022/03/03 09:02:46;;;;;;;29.10;16.97;;;;;;;3.22;70.38;101723.47;1715296;82;21000;-87
2022/03/03 09:05:12;;;;;;;40.92;19.20;;;;;;;3.21;70.24;101725.18;1678124;83;21926;-87
2022/03/03 09:07:39;;;;;;;33.65;20.00;;;;;;;3.17;70.21;101723.13;1715237;83;22202;-88
2022/03/03 09:10:07;;;;;;;40.17;21.52;;;;;;;3.22;70.42;101721.77;1715259;82;21000;-87
2022/03/03 09:12:33;;;;;;;32.15;18.05;;;;;;;3.34;70.47;101720.81;1715285;83;21071;-88
2022/03/03 09:15:00;;;;;;;34.00;19.45;;;;;;;3.36;70.25;101733.53;1715522;83;21644;-88
2022/03/03 09:17:27;;;;;;;33.10;19.60;;;;;;;3.41;70.35;101729.16;1715189;83;22449;-88
2022/03/03 09:19:53;;;;;;;45.30;22.45;;;;;;;3.51;70.36;101725.52;1715156;83;21079;-88
2022/03/03 09:22:20;;;;;;;39.73;20.97;;;;;;;3.55;70.12;101727.52;1715131;83;21115;-87
2022/03/03 09:24:46;;;;;;;33.78;19.73;;;;;;;3.59;70.14;101729.53;1715277;83;21147;-88
2022/03/03 09:27:13;;;;;;;37.67;19.92;;;;;;;3.62;70.08;101730.13;1715297;83;21067;-87
2022/03/03 09:29:40;;;;;;;42.20;22.45;;;;;;;3.66;70.11;101727.86;1715261;82;21864;-87
2022/03/03 09:32:06;;;;;;;34.40;18.77;;;;;;;3.76;70.18;101727.19;1715101;83;21542;-88
2022/03/03 09:34:33;;;;;;;44.70;21.52;;;;;;;3.85;70.01;101736.53;1715394;83;21000;-87
2022/03/03 09:37:00;;;;;;;41.00;19.30;;;;;;;3.93;70.04;101732.24;1715618;83;21039;-88
2022/03/03 09:39:27;;;;;;;30.82;18.32;;;;;;;4.02;69.91;101731.16;1715454;83;21114;-88
2022/03/03 09:41:53;;;;;;;33.30;18.98;;;;;;;4.05;69.71;101734.34;1743336;81;21771;-88
2022/03/03 09:44:22;;;;;;;34.33;19.10;;;;;;;3.96;69.47;101736.33;1748606;81;21539;-88
2022/03/03 09:46:48;;;;;;;42.85;21.82;;;;;;;3.98;69.59;101734.36;1749102;82;21651;-88
2022/03/03 09:49:15;;;;;;;34.73;19.32;;;;;;;4.01;69.71;101736.25;1749242;82;21008;-88
2022/03/03 09:51:42;;;;;;;39.80;19.52;;;;;;;4.09;69.77;101735.98;1748920;80;21070;-88
2022/03/03 09:54:08;;;;;;;42.48;21.45;;;;;;;4.14;69.53;101737.58;1748704;82;22607;-84
2022/03/03 09:56:36;;;;;;;52.10;22.67;;;;;;;4.08;69.50;101726.34;1748621;82;21532;-88
2022/03/03 09:59:04;;;;;;;45.65;21.42;;;;;;;4.12;69.60;101736.98;1748690;82;21089;-87
2022/03/03 10:01:31;;;;;;;33.05;18.30;;;;;;;4.13;69.57;101730.58;1748553;82;21050;-88
2022/03/03 10:04:22;;;;;;;31.85;18.65;;;;;;;4.04;69.47;101742.58;1748722;82;21579;-88
2022/03/03 10:06:49;;;;;;;39.03;20.25;;;;;;;3.92;69.46;101733.92;1747779;80;21792;-88
2022/03/03 10:09:18;;;;;;;33.55;18.23;;;;;;;3.92;69.80;101739.13;1748729;82;21027;-87
2022/03/03 10:12:05;;;;;;;38.85;19.73;;;;;;;3.99;69.88;101741.77;1748728;82;21030;-87
2022/03/03 10:14:35;;;;;;;37.08;20.68;;;;;;;3.99;69.88;101733.54;1747471;80;21050;-87
2022/03/03 10:17:03;;;;;;;40.88;21.50;;;;;;;4.08;69.86;101731.55;1748432;81;21066;-86
2022/03/03 10:19:31;;;;;;;46.08;22.10;;;;;;;4.05;69.80;101726.53;1748872;82;21755;-88
2022/03/03 10:21:57;;;;;;;44.80;20.05;;;;;;;4.11;69.95;101723.44;1728002;82;21356;-87
2022/03/03 10:24:29;;;;;;;42.30;23.12;;;;;;;4.09;69.91;101721.65;1748967;82;21143;-87
2022/03/03 10:27:00;;;;;;;35.25;20.25;;;;;;;4.13;70.08;101724.44;1749227;82;21066;-87
2022/03/03 10:29:27;;;;;;;35.13;22.05;;;;;;;4.24;70.25;101726.98;1748027;80;21058;-88
2022/03/03 10:31:55;;;;;;;30.10;17.92;;;;;;;4.31;70.25;101725.66;1749037;82;22550;-88
2022/03/03 10:34:33;;;;;;;29.82;16.97;;;;;;;4.35;70.09;101718.54;1748921;82;21054;-88
2022/03/03 10:37:03;;;;;;;27.02;15.90;;;;;;;4.36;70.17;101719.47;1748733;82;21626;-88
2022/03/03 10:39:51;;;;;;;27.15;15.23;;;;;;;4.38;70.24;101712.64;1748532;82;21527;-87
2022/03/03 10:42:21;;;;;;;28.10;15.70;;;;;;;4.51;70.45;101703.92;1718213;81;21039;-87
2022/03/03 10:45:07;;;;;;;23.38;13.58;;;;;;;4.74;70.37;101710.19;1714637;83;21795;-87
2022/03/03 10:47:34;;;;;;;19.85;11.73;;;;;;;4.95;70.44;101712.36;1713625;83;21070;-87
2022/03/03 10:50:01;;;;;;;20.08;12.85;;;;;;;5.17;70.01;101710.29;1675654;85;21071;-87
2022/03/03 10:52:31;;;;;;;25.62;13.65;;;;;;;5.22;69.60;101717.13;1675710;85;21059;-87
2022/03/03 10:55:05;;;;;;;23.30;13.85;;;;;;;5.26;69.55;101712.58;1676101;85;21091;-87
2022/03/03 10:57:44;;;;;;;21.50;12.70;;;;;;;5.30;69.40;101705.43;1675813;85;22477;-87
2022/03/03 11:00:20;;;;;;;19.87;12.18;;;;;;;5.34;69.22;101717.86;1649420;85;21080;-88
2022/03/03 11:02:56;;;;;;;19.32;10.95;;;;;;;5.38;69.08;101709.81;1676139;84;21119;-88
2022/03/03 11:05:24;;;;;;;26.75;12.03;;;;;;;5.45;68.97;101702.86;1676583;85;21095;-87
2022/03/03 11:07:53;;;;;;;19.02;11.43;;;;;;;5.58;68.88;101708.43;1675429;85;21550;-87
2022/03/03 11:10:22;;;;;;;18.40;11.45;;;;;;;5.62;68.34;101700.86;1675407;84;21851;-87
2022/03/03 11:12:49;;;;;;;23.52;10.98;;;;;;;5.76;68.69;101696.86;1675386;85;21063;-87
2022/03/03 11:15:19;;;;;;;17.75;11.22;;;;;;;5.93;68.48;101700.09;1675543;85;21561;-87
2022/03/03 11:17:46;;;;;;;17.75;11.80;;;;;;;6.03;68.10;101700.25;1675378;85;21208;-88
2022/03/03 11:20:16;;;;;;;23.07;12.37;;;;;;;6.01;67.61;101705.80;1676392;84;21048;-88
2022/03/03 11:22:43;;;;;;;21.87;11.80;;;;;;;5.94;67.27;101708.41;1675760;85;21833;-87